createdAt,value
2022-11-22T00:00:42.306Z,23.58
2022-11-22T00:03:17.789Z,24.92
2022-11-22T00:05:47.561Z,25.75
2022-11-22T00:08:14.610Z,25.98
2022-11-22T00:10:41.989Z,24.00
2022-11-22T00:13:09.548Z,25.98
2022-11-22T00:15:39.451Z,25.42
2022-11-22T00:18:09.676Z,23.55
2022-11-22T00:20:37.259Z,24.00
2022-11-22T00:23:04.698Z,23.33
2022-11-22T00:25:32.251Z,23.30
2022-11-22T00:27:59.130Z,24.20
2022-11-22T00:30:26.376Z,22.38
2022-11-22T00:32:53.426Z,22.38
2022-11-22T00:35:20.790Z,23.25
2022-11-22T00:37:50.051Z,22.92
2022-11-22T00:40:17.377Z,24.27
2022-11-22T00:42:44.316Z,21.55
2022-11-22T00:45:12.085Z,22.83
2022-11-22T00:47:39.084Z,22.40
2022-11-22T00:50:06.706Z,21.40
2022-11-22T00:52:33.653Z,23.00
2022-11-22T00:55:00.933Z,22.23
2022-11-22T00:57:28.037Z,22.42
2022-11-22T00:59:55.313Z,21.77
2022-11-22T01:02:24.652Z,20.42
2022-11-22T01:04:51.927Z,17.27
2022-11-22T01:07:18.991Z,17.25
2022-11-22T01:09:48.824Z,16.05
2022-11-22T01:12:16.142Z,17.23
2022-11-22T01:14:43.464Z,17.23
2022-11-22T01:17:10.464Z,17.33
2022-11-22T01:19:40.044Z,16.70
2022-11-22T01:22:07.084Z,17.35
2022-11-22T01:24:34.458Z,17.58
2022-11-22T01:27:03.732Z,15.95
2022-11-22T01:29:31.454Z,16.23
2022-11-22T01:31:58.504Z,16.25
2022-11-22T01:34:30.451Z,17.15
2022-11-22T01:36:57.412Z,17.75
2022-11-22T01:39:24.659Z,17.27
2022-11-22T01:41:51.626Z,16.95
2022-11-22T01:44:28.478Z,17.27
2022-11-22T01:47:00.129Z,18.27
2022-11-22T01:50:05.194Z,16.50
2022-11-22T01:52:34.350Z,17.80
2022-11-22T01:55:09.522Z,16.35
2022-11-22T01:57:39.288Z,15.60
2022-11-22T02:00:14.793Z,17.15
2022-11-22T02:02:51.937Z,16.17
2022-11-22T02:05:22.926Z,15.95
2022-11-22T02:08:00.473Z,16.83
2022-11-22T02:10:30.146Z,17.45
2022-11-22T02:12:59.616Z,17.33
2022-11-22T02:15:27.111Z,16.67
2022-11-22T02:17:54.421Z,16.17
2022-11-22T02:20:23.942Z,17.23
2022-11-22T02:22:53.693Z,16.33
2022-11-22T02:25:42.116Z,17.67
2022-11-22T02:28:11.846Z,17.23
2022-11-22T02:30:40.413Z,18.73
2022-11-22T02:33:08.070Z,17.05
2022-11-22T02:35:35.640Z,17.45
2022-11-22T02:38:08.616Z,18.08
2022-11-22T02:40:44.984Z,18.10
2022-11-22T02:45:41.029Z,15.63
2022-11-22T02:48:11.074Z,16.88
2022-11-22T02:50:38.628Z,16.95
2022-11-22T02:53:06.780Z,15.68
2022-11-22T02:55:34.087Z,15.95
2022-11-22T02:58:01.247Z,15.75
2022-11-22T03:00:28.535Z,17.17
2022-11-22T03:02:55.428Z,18.17
2022-11-22T03:05:25.222Z,17.00
2022-11-22T03:07:52.146Z,18.13
2022-11-22T03:10:21.988Z,16.38
2022-11-22T03:12:49.030Z,17.27
2022-11-22T03:15:16.430Z,19.02
2022-11-22T03:17:43.492Z,16.25
2022-11-22T03:20:10.848Z,18.92
2022-11-22T03:22:37.993Z,19.08
2022-11-22T03:25:05.918Z,20.02
2022-11-22T03:27:35.106Z,19.00
2022-11-22T03:30:02.357Z,19.17
2022-11-22T03:32:29.359Z,20.38
2022-11-22T03:34:56.614Z,20.73
2022-11-22T03:37:23.591Z,20.00
2022-11-22T03:39:50.948Z,20.77
2022-11-22T03:42:21.450Z,22.80
2022-11-22T03:44:49.845Z,21.25
2022-11-22T03:47:16.837Z,20.92
2022-11-22T03:49:44.086Z,20.73
2022-11-22T03:52:13.919Z,22.85
2022-11-22T03:54:44.097Z,20.20
2022-11-22T03:57:10.992Z,21.20
2022-11-22T03:59:38.224Z,21.00
2022-11-22T04:02:05.386Z,19.98
2022-11-22T04:04:34.072Z,19.90
2022-11-22T04:07:01.126Z,20.60
2022-11-22T04:09:31.242Z,21.17
2022-11-22T04:11:58.462Z,20.42
2022-11-22T04:14:44.594Z,20.10
2022-11-22T04:17:14.820Z,19.23
2022-11-22T04:20:02.031Z,20.55
2022-11-22T04:22:28.980Z,19.83
2022-11-22T04:25:14.664Z,20.48
2022-11-22T04:27:41.620Z,17.73
2022-11-22T04:30:09.186Z,17.67
2022-11-22T04:32:48.240Z,19.15
2022-11-22T04:35:17.011Z,18.63
2022-11-22T04:37:51.448Z,18.70
2022-11-22T04:40:21.354Z,17.70
2022-11-22T04:43:06.431Z,18.20
2022-11-22T04:45:35.932Z,17.48
2022-11-22T04:48:03.040Z,18.98
2022-11-22T04:50:50.667Z,16.95
2022-11-22T04:53:18.928Z,17.08
2022-11-22T04:55:47.437Z,17.95
2022-11-22T04:58:14.718Z,16.48
2022-11-22T05:00:44.767Z,16.15
2022-11-22T05:03:11.860Z,16.48
2022-11-22T05:05:41.125Z,16.90
2022-11-22T05:08:08.637Z,17.05
2022-11-22T05:10:57.524Z,16.40
2022-11-22T05:13:27.304Z,16.35
2022-11-22T05:15:55.466Z,16.23
2022-11-22T05:18:23.463Z,16.50
2022-11-22T05:20:51.363Z,17.67
2022-11-22T05:23:38.273Z,17.35
2022-11-22T05:26:06.446Z,16.98
2022-11-22T05:28:35.486Z,16.75
2022-11-22T05:31:10.375Z,16.90
2022-11-22T05:33:42.370Z,16.83
2022-11-22T05:36:12.915Z,17.58
2022-11-22T05:38:40.067Z,15.65
2022-11-22T05:41:10.230Z,15.63
2022-11-22T05:43:37.839Z,17.35
2022-11-22T05:46:09.200Z,16.33
2022-11-22T05:48:37.782Z,16.70
2022-11-22T05:51:10.680Z,15.88
2022-11-22T05:53:38.832Z,16.45
2022-11-22T05:56:08.514Z,15.60
2022-11-22T05:58:38.348Z,15.43
2022-11-22T06:01:08.689Z,16.30
2022-11-22T06:03:36.899Z,16.10
2022-11-22T06:06:05.873Z,16.73
2022-11-22T06:08:35.910Z,16.35
2022-11-22T06:11:32.411Z,16.10
2022-11-22T06:14:03.358Z,17.05
2022-11-22T06:16:30.778Z,16.42
2022-11-22T06:18:57.814Z,16.25
2022-11-22T06:21:26.571Z,17.15
2022-11-22T06:23:55.222Z,16.92
2022-11-22T06:26:24.163Z,15.65
2022-11-22T06:28:51.824Z,16.70
2022-11-22T06:31:25.187Z,16.67
2022-11-22T06:33:57.703Z,16.98
2022-11-22T06:36:35.286Z,16.75
2022-11-22T06:39:03.822Z,17.63
2022-11-22T06:41:36.330Z,16.55
2022-11-22T06:44:09.862Z,17.05
2022-11-22T06:46:37.594Z,16.40
2022-11-22T06:49:04.648Z,16.90
2022-11-22T06:51:32.694Z,15.70
2022-11-22T06:54:00.104Z,16.15
2022-11-22T06:56:29.849Z,17.42
2022-11-22T06:58:57.317Z,16.65
2022-11-22T07:01:27.554Z,15.70
2022-11-22T07:03:59.275Z,16.38
2022-11-22T07:06:29.265Z,15.82
2022-11-22T07:08:56.671Z,15.30
2022-11-22T07:11:29.057Z,14.45
2022-11-22T07:14:05.014Z,16.42
2022-11-22T07:16:35.937Z,15.13
2022-11-22T07:19:02.996Z,16.08
2022-11-22T07:21:32.735Z,17.80
2022-11-22T07:23:59.887Z,16.10
2022-11-22T07:26:27.934Z,15.10
2022-11-22T07:28:54.978Z,15.93
2022-11-22T07:31:22.559Z,15.80
2022-11-22T07:33:49.684Z,15.88
2022-11-22T07:36:19.525Z,16.08
2022-11-22T07:38:47.934Z,17.15
2022-11-22T07:41:16.635Z,17.25
2022-11-22T07:43:43.941Z,17.23
2022-11-22T07:46:23.514Z,18.35
2022-11-22T07:48:51.066Z,17.70
2022-11-22T07:51:18.899Z,18.70
2022-11-22T07:53:46.214Z,18.33
2022-11-22T07:56:14.039Z,17.70
2022-11-22T07:58:41.223Z,17.02
2022-11-22T08:01:10.632Z,17.60
2022-11-22T08:03:38.428Z,18.20
2022-11-22T08:06:09.041Z,18.65
2022-11-22T08:08:36.976Z,18.63
2022-11-22T08:11:06.050Z,18.90
2022-11-22T08:13:34.156Z,18.65
2022-11-22T08:16:05.633Z,19.80
2022-11-22T08:18:35.127Z,19.92
2022-11-22T08:21:08.220Z,19.35
2022-11-22T08:23:35.709Z,20.05
2022-11-22T08:26:03.959Z,18.55
2022-11-22T08:28:31.121Z,20.05
2022-11-22T08:31:06.998Z,20.38
2022-11-22T08:33:34.427Z,20.35
2022-11-22T08:36:01.798Z,19.50
2022-11-22T08:38:28.875Z,19.92
2022-11-22T08:40:56.724Z,20.42
2022-11-22T08:43:26.318Z,20.90
2022-11-22T08:45:57.029Z,20.45
2022-11-22T08:48:25.994Z,20.45
2022-11-22T08:50:55.342Z,22.08
2022-11-22T08:53:25.146Z,20.05
2022-11-22T08:55:53.235Z,21.88
2022-11-22T08:58:23.118Z,22.30
2022-11-22T09:00:50.544Z,22.45
2022-11-22T09:03:19.978Z,20.70
2022-11-22T09:08:37.764Z,20.83
2022-11-22T09:11:09.203Z,21.10
2022-11-22T09:13:36.519Z,21.23
2022-11-22T09:16:09.539Z,21.40
2022-11-22T09:18:37.266Z,19.88
2022-11-22T09:21:08.119Z,20.75
2022-11-22T09:23:36.046Z,20.95
2022-11-22T09:26:09.195Z,22.92
2022-11-22T09:28:38.962Z,24.10
2022-11-22T09:31:08.255Z,24.67
2022-11-22T09:33:37.777Z,24.60
2022-11-22T09:36:11.767Z,24.27
2022-11-22T09:38:38.914Z,24.45
2022-11-22T09:41:36.966Z,24.15
2022-11-22T09:44:28.026Z,24.25
2022-11-22T09:47:08.076Z,24.83
2022-11-22T09:49:37.964Z,24.33
2022-11-22T09:52:15.164Z,22.98
2022-11-22T09:55:10.611Z,22.90
2022-11-22T09:57:43.837Z,23.73
2022-11-22T10:00:31.395Z,22.65
2022-11-22T10:03:43.862Z,23.88
2022-11-22T10:06:34.786Z,20.58
2022-11-22T10:09:11.255Z,21.50
2022-11-22T10:12:10.126Z,20.10
2022-11-22T10:14:53.880Z,19.40
2022-11-22T10:17:36.940Z,20.77
2022-11-22T10:20:24.333Z,21.95
2022-11-22T10:22:51.903Z,20.55
2022-11-22T10:25:35.039Z,20.77
2022-11-22T10:28:16.364Z,21.25
2022-11-22T10:30:55.130Z,18.80
2022-11-22T10:33:50.522Z,19.50
2022-11-22T10:36:24.327Z,19.33
2022-11-22T10:39:03.679Z,20.50
2022-11-22T10:41:46.042Z,19.63
2022-11-22T10:44:39.254Z,20.23
2022-11-22T10:47:09.951Z,19.70
2022-11-22T10:49:51.976Z,20.48
2022-11-22T10:52:40.900Z,20.02
2022-11-22T10:55:29.405Z,16.17
2022-11-22T10:58:10.724Z,18.73
2022-11-22T11:00:43.956Z,19.42
2022-11-22T11:03:23.567Z,18.60
2022-11-22T11:06:43.593Z,18.92
2022-11-22T11:10:02.844Z,18.90
2022-11-22T11:11:56.983Z,19.38
2022-11-22T11:14:37.115Z,19.65
2022-11-22T11:17:07.205Z,18.90
2022-11-22T11:19:41.874Z,19.10
2022-11-22T11:22:08.991Z,19.50
2022-11-22T11:24:40.094Z,17.35
2022-11-22T11:27:09.353Z,16.80
2022-11-22T11:29:46.926Z,17.73
2022-11-22T11:32:16.483Z,18.30
2022-11-22T11:34:53.522Z,16.33
2022-11-22T11:37:27.551Z,17.38
2022-11-22T11:39:57.880Z,16.75
2022-11-22T11:42:35.676Z,15.70
2022-11-22T11:45:24.879Z,16.13
2022-11-22T11:47:51.826Z,15.88
2022-11-22T11:50:24.994Z,15.75
2022-11-22T11:53:04.914Z,15.50
2022-11-22T11:55:35.547Z,14.30
2022-11-22T11:58:19.600Z,14.52
2022-11-22T12:00:47.417Z,14.50
2022-11-22T12:03:19.157Z,15.98
2022-11-22T12:05:46.642Z,13.73
2022-11-22T12:08:31.752Z,14.13
2022-11-22T12:11:09.130Z,13.85
2022-11-22T12:13:51.760Z,13.70
2022-11-22T12:16:32.105Z,13.18
2022-11-22T12:19:33.105Z,12.55
2022-11-22T12:22:42.613Z,12.95
2022-11-22T12:25:34.754Z,14.77
2022-11-22T12:28:27.472Z,16.95
2022-11-22T12:31:13.596Z,16.13
2022-11-22T12:33:47.663Z,16.80
2022-11-22T12:36:40.302Z,16.15
2022-11-22T12:39:14.612Z,15.77
2022-11-22T12:41:43.199Z,16.77
2022-11-22T12:44:16.821Z,16.00
2022-11-22T12:46:52.651Z,16.25
2022-11-22T12:49:39.987Z,18.45
2022-11-22T12:52:33.691Z,18.35
2022-11-22T12:55:05.806Z,18.40
2022-11-22T12:57:42.997Z,18.45
2022-11-22T13:00:16.324Z,19.23
2022-11-22T13:03:03.503Z,19.50
2022-11-22T13:05:37.024Z,18.38
2022-11-22T13:08:31.289Z,19.48
2022-11-22T13:11:06.452Z,18.33
2022-11-22T13:13:47.483Z,18.77
2022-11-22T13:16:15.053Z,18.25
2022-11-22T13:18:49.882Z,18.15
2022-11-22T13:21:25.941Z,17.17
2022-11-22T13:24:09.578Z,17.02
2022-11-22T13:27:04.499Z,18.38
2022-11-22T13:29:34.718Z,17.23
2022-11-22T13:32:05.097Z,18.38
2022-11-22T13:34:34.253Z,16.98
2022-11-22T13:37:18.563Z,17.67
2022-11-22T13:39:49.717Z,17.67
2022-11-22T13:42:28.468Z,17.92
2022-11-22T13:44:55.342Z,16.95
2022-11-22T13:47:22.552Z,18.00
2022-11-22T13:49:54.086Z,16.42
2022-11-22T13:52:21.289Z,18.40
2022-11-22T13:54:48.281Z,17.60
2022-11-22T13:57:35.840Z,16.90
2022-11-22T14:00:14.850Z,16.13
2022-11-22T14:02:45.351Z,16.63
2022-11-22T14:05:40.946Z,17.40
2022-11-22T14:08:37.325Z,17.80
2022-11-22T14:11:53.829Z,17.80
2022-11-22T14:14:57.025Z,16.37
2022-11-22T14:17:42.706Z,17.23
2022-11-22T14:20:56.417Z,17.20
2022-11-22T14:23:33.648Z,17.27
2022-11-22T14:26:28.736Z,19.00
2022-11-22T14:29:27.785Z,18.88
2022-11-22T14:32:03.994Z,17.65
2022-11-22T14:37:34.449Z,17.08
2022-11-22T14:40:07.823Z,17.45
2022-11-22T14:42:38.212Z,17.92
2022-11-22T14:45:11.246Z,17.48
2022-11-22T14:47:53.875Z,15.77
2022-11-22T14:50:40.466Z,15.95
2022-11-22T14:53:39.083Z,16.55
2022-11-22T14:56:26.890Z,15.48
2022-11-22T14:59:28.321Z,16.60
2022-11-22T15:02:34.702Z,16.10
2022-11-22T15:09:14.915Z,16.48
2022-11-22T15:09:19.183Z,17.63
2022-11-22T15:11:27.179Z,16.55
2022-11-22T15:14:26.528Z,17.00
2022-11-22T15:59:43.233Z,13.95
2022-11-22T16:02:25.412Z,14.25
2022-11-22T16:06:07.874Z,14.43
2022-11-22T16:07:49.238Z,16.23
2022-11-22T16:10:23.113Z,17.13
2022-11-22T16:12:51.662Z,16.42
2022-11-22T16:15:37.205Z,15.77
2022-11-22T16:18:13.605Z,15.95
2022-11-22T16:21:04.356Z,16.73
2022-11-22T16:23:35.093Z,16.50
2022-11-22T16:26:17.788Z,16.08
2022-11-22T16:28:46.725Z,16.25
2022-11-22T16:31:24.862Z,17.50
2022-11-22T16:33:54.748Z,17.77
2022-11-22T16:36:24.397Z,16.58
2022-11-22T16:38:52.318Z,16.77
2022-11-22T16:41:26.218Z,17.05
2022-11-22T16:44:02.118Z,16.10
2022-11-22T16:46:31.490Z,20.65
2022-11-22T16:49:02.206Z,18.13
2022-11-22T16:51:30.852Z,17.48
2022-11-22T16:54:08.648Z,18.35
2022-11-22T16:56:37.588Z,18.10
2022-11-22T16:59:12.705Z,17.98
2022-11-22T17:01:44.703Z,18.17
2022-11-22T17:04:26.690Z,18.80
2022-11-22T17:06:58.040Z,17.17
2022-11-22T17:09:26.233Z,17.98
2022-11-22T17:11:53.684Z,18.80
2022-11-22T17:14:22.638Z,34.08
2022-11-22T17:16:50.713Z,30.75
2022-11-22T17:19:45.490Z,26.85
2022-11-22T17:22:07.765Z,23.33
2022-11-22T17:24:36.439Z,24.77
2022-11-22T17:27:04.334Z,22.63
2022-11-22T17:32:21.899Z,24.63
2022-11-22T17:34:53.150Z,22.92
2022-11-22T17:37:25.653Z,23.83
2022-11-22T17:39:55.265Z,22.17
2022-11-22T17:42:27.605Z,21.05
2022-11-22T17:44:55.980Z,21.65
2022-11-22T17:47:24.090Z,22.38
2022-11-22T17:49:55.414Z,20.30
2022-11-22T17:52:22.946Z,21.05
2022-11-22T17:54:51.234Z,19.95
2022-11-22T17:57:21.111Z,21.30
2022-11-22T17:59:49.320Z,20.27
2022-11-22T18:02:17.402Z,20.08
2022-11-22T18:04:45.600Z,20.20
2022-11-22T18:07:16.082Z,19.55
2022-11-22T18:09:44.693Z,19.95
2022-11-22T18:12:12.330Z,22.00
2022-11-22T18:14:40.550Z,21.27
2022-11-22T18:17:08.591Z,20.48
2022-11-22T18:19:40.126Z,20.90
2022-11-22T18:22:09.547Z,20.90
2022-11-22T18:24:37.910Z,21.30
2022-11-22T18:27:05.816Z,20.27
2022-11-22T18:29:42.849Z,24.05
2022-11-22T18:32:12.342Z,23.45
2022-11-22T18:34:42.157Z,21.70
2022-11-22T18:37:10.672Z,20.67
2022-11-22T18:39:41.821Z,22.15
2022-11-22T18:42:16.418Z,22.00
2022-11-22T18:44:48.522Z,21.67
2022-11-22T18:47:17.595Z,23.38
2022-11-22T18:49:46.792Z,22.15
2022-11-22T18:52:18.152Z,21.95
2022-11-22T18:54:47.631Z,21.95
2022-11-22T18:57:15.690Z,21.17
2022-11-22T18:59:44.705Z,22.15
2022-11-22T19:02:12.867Z,22.63
2022-11-22T19:04:41.732Z,24.65
2022-11-22T19:07:09.892Z,25.63
2022-11-22T19:09:44.503Z,27.00
2022-11-22T19:12:13.487Z,24.27
2022-11-22T19:14:42.483Z,26.85
2022-11-22T19:17:10.948Z,27.02
2022-11-22T19:19:41.853Z,24.73
2022-11-22T19:22:10.244Z,24.17
2022-11-22T19:24:47.370Z,24.60
2022-11-22T19:27:20.563Z,23.40
2022-11-22T19:29:51.779Z,22.88
2022-11-22T19:32:20.133Z,23.45
2022-11-22T19:34:48.724Z,22.55
2022-11-22T19:37:17.811Z,21.05
2022-11-22T19:39:46.873Z,21.73
2022-11-22T19:42:18.013Z,23.00
2022-11-22T19:44:46.355Z,22.30
2022-11-22T19:47:14.564Z,22.85
2022-11-22T19:49:42.692Z,23.80
2022-11-22T19:52:10.813Z,24.75
2022-11-22T19:54:39.316Z,23.27
2022-11-22T19:57:07.471Z,22.75
2022-11-22T19:59:40.065Z,20.55
2022-11-22T20:02:09.621Z,21.20
2022-11-22T20:04:37.998Z,20.48
2022-11-22T20:07:06.486Z,20.17
2022-11-22T20:09:37.891Z,20.55
2022-11-22T20:12:07.270Z,19.90
2022-11-22T20:14:36.135Z,21.52
2022-11-22T20:17:03.762Z,20.45
2022-11-22T20:19:34.731Z,20.75
2022-11-22T20:22:02.895Z,20.52
2022-11-22T20:24:33.630Z,21.75
2022-11-22T20:27:04.005Z,22.23
2022-11-22T20:29:32.348Z,21.35
2022-11-22T20:32:02.448Z,21.58
2022-11-22T20:34:33.862Z,20.45
2022-11-22T20:37:04.448Z,19.90
2022-11-22T20:39:35.936Z,21.05
2022-11-22T20:42:33.092Z,21.98
2022-11-22T20:44:56.678Z,22.38
2022-11-22T20:47:24.764Z,21.98
2022-11-22T20:49:53.989Z,22.67
2022-11-22T20:52:22.479Z,24.02
2022-11-22T20:54:52.847Z,23.50
2022-11-22T20:57:21.794Z,24.27
2022-11-22T20:59:50.240Z,24.65
2022-11-22T21:02:18.107Z,23.73
2022-11-22T21:04:45.871Z,23.70
2022-11-22T21:07:13.691Z,22.35
2022-11-22T21:09:41.867Z,22.20
2022-11-22T21:12:08.972Z,22.48
2022-11-22T21:14:36.232Z,23.38
2022-11-22T21:17:22.785Z,23.60
2022-11-22T21:19:51.729Z,22.60
2022-11-22T21:22:18.943Z,23.45
2022-11-22T21:24:47.080Z,23.92
2022-11-22T21:27:14.810Z,24.20
2022-11-22T21:29:42.305Z,24.60
2022-11-22T21:32:09.917Z,24.17
2022-11-22T21:34:37.638Z,24.52
2022-11-22T21:37:04.996Z,24.88
2022-11-22T21:39:32.003Z,23.90
2022-11-22T21:41:59.285Z,24.42
2022-11-22T21:44:26.294Z,26.15
2022-11-22T21:46:53.493Z,23.73
2022-11-22T21:49:20.466Z,24.85
2022-11-22T21:51:48.533Z,26.10
2022-11-22T21:54:15.494Z,24.27
2022-11-22T21:56:42.859Z,25.52
2022-11-22T21:59:11.406Z,24.48
2022-11-22T22:01:39.103Z,26.25
2022-11-22T22:04:06.058Z,24.98
2022-11-22T22:06:33.834Z,25.02
2022-11-22T22:09:00.844Z,24.98
2022-11-22T22:11:28.611Z,26.02
2022-11-22T22:13:55.740Z,25.65
2022-11-22T22:16:24.068Z,25.05
2022-11-22T22:18:51.162Z,26.55
2022-11-22T22:21:19.585Z,27.80
2022-11-22T22:23:47.151Z,26.60
2022-11-22T22:26:17.953Z,27.25
2022-11-22T22:28:46.044Z,28.52
2022-11-22T22:31:22.789Z,26.65
2022-11-22T22:33:58.637Z,28.83
2022-11-22T22:36:26.888Z,28.85
2022-11-22T22:38:54.983Z,28.90
2022-11-22T22:41:22.464Z,28.77
2022-11-22T22:43:49.596Z,30.35
2022-11-22T22:46:24.888Z,27.80
2022-11-22T22:48:54.851Z,29.95
2022-11-22T22:51:33.236Z,29.67
2022-11-22T22:56:30.174Z,28.40
2022-11-22T22:59:01.108Z,29.08
2022-11-22T23:01:30.553Z,28.42
2022-11-22T23:04:01.711Z,28.70
2022-11-22T23:06:31.722Z,28.38
2022-11-22T23:08:59.636Z,30.27
2022-11-22T23:11:50.282Z,29.00
2022-11-22T23:14:23.903Z,29.13
2022-11-22T23:16:57.119Z,27.35
2022-11-22T23:19:25.957Z,27.08
2022-11-22T23:21:53.641Z,27.33
2022-11-22T23:24:23.114Z,27.75
2022-11-22T23:26:50.412Z,28.55
2022-11-22T23:29:17.426Z,26.58
2022-11-22T23:31:44.711Z,26.63
2022-11-22T23:34:12.242Z,28.20
2022-11-22T23:36:41.167Z,27.98
2022-11-22T23:39:09.130Z,28.27
2022-11-22T23:41:36.454Z,27.48
2022-11-22T23:44:03.865Z,27.92
2022-11-22T23:46:31.370Z,28.27
2022-11-22T23:49:01.938Z,29.05
2022-11-22T23:51:30.874Z,28.27
2022-11-22T23:54:02.430Z,26.25
2022-11-22T23:56:31.492Z,28.55
2022-11-22T23:58:59.782Z,28.75
